sensor_id;sensor_type;location;lat;lon;timestamp;pressure;altitude;pressure_sealevel;temperature;humidity
54918;BME280;40818;50.562;7.454;2023-04-09T00:06:40;98538.06;;;4.99;100.00
54918;BME280;40818;50.562;7.454;2023-04-09T00:16:43;98516.69;;;4.97;100.00
54918;BME280;40818;50.562;7.454;2023-04-09T00:26:49;98516.97;;;4.88;100.00
54918;BME280;40818;50.562;7.454;2023-04-09T00:36:53;98509.25;;;4.88;100.00
54918;BME280;40818;50.562;7.454;2023-04-09T00:46:59;98516.25;;;4.83;100.00
54918;BME280;40818;50.562;7.454;2023-04-09T00:57:02;98514.72;;;4.77;100.00
54918;BME280;40818;50.562;7.454;2023-04-09T01:07:12;98514.50;;;4.85;100.00
54918;BME280;40818;50.562;7.454;2023-04-09T01:17:21;98510.84;;;4.92;100.00
54918;BME280;40818;50.562;7.454;2023-04-09T01:27:35;98509.28;;;4.86;100.00
54918;BME280;40818;50.562;7.454;2023-04-09T01:37:42;98512.03;;;4.80;100.00
54918;BME280;40818;50.562;7.454;2023-04-09T01:47:46;98507.75;;;4.81;100.00
54918;BME280;40818;50.562;7.454;2023-04-09T01:57:53;98503.59;;;4.76;100.00
54918;BME280;40818;50.562;7.454;2023-04-09T02:07:57;98498.66;;;4.69;100.00
54918;BME280;40818;50.562;7.454;2023-04-09T02:18:19;98497.44;;;4.51;100.00
54918;BME280;40818;50.562;7.454;2023-04-09T02:28:23;98491.88;;;4.36;100.00
54918;BME280;40818;50.562;7.454;2023-04-09T02:38:29;98488.53;;;4.33;100.00
54918;BME280;40818;50.562;7.454;2023-04-09T02:48:33;98485.47;;;4.20;100.00
54918;BME280;40818;50.562;7.454;2023-04-09T02:58:39;98482.09;;;4.18;100.00
54918;BME280;40818;50.562;7.454;2023-04-09T03:08:43;98480.28;;;4.21;100.00
54918;BME280;40818;50.562;7.454;2023-04-09T03:18:49;98474.22;;;4.24;100.00
54918;BME280;40818;50.562;7.454;2023-04-09T03:28:52;98471.75;;;4.21;100.00
54918;BME280;40818;50.562;7.454;2023-04-09T03:38:59;98464.03;;;4.21;100.00
54918;BME280;40818;50.562;7.454;2023-04-09T03:49:09;98459.94;;;4.14;100.00
54918;BME280;40818;50.562;7.454;2023-04-09T03:59:18;98459.34;;;4.04;100.00
54918;BME280;40818;50.562;7.454;2023-04-09T04:09:22;98465.19;;;4.09;100.00
54918;BME280;40818;50.562;7.454;2023-04-09T04:19:34;98465.56;;;3.95;100.00
54918;BME280;40818;50.562;7.454;2023-04-09T04:29:38;98457.94;;;3.92;100.00
54918;BME280;40818;50.562;7.454;2023-04-09T04:39:59;98462.31;;;3.90;100.00
54918;BME280;40818;50.562;7.454;2023-04-09T04:50:08;98459.78;;;3.88;100.00
54918;BME280;40818;50.562;7.454;2023-04-09T05:00:40;98469.22;;;3.86;100.00
54918;BME280;40818;50.562;7.454;2023-04-09T05:10:44;98473.31;;;3.93;100.00
54918;BME280;40818;50.562;7.454;2023-04-09T05:20:50;98479.97;;;4.01;100.00
54918;BME280;40818;50.562;7.454;2023-04-09T05:30:55;98475.06;;;3.93;100.00
54918;BME280;40818;50.562;7.454;2023-04-09T05:41:01;98488.44;;;4.04;100.00
54918;BME280;40818;50.562;7.454;2023-04-09T05:51:08;98487.19;;;4.19;100.00
54918;BME280;40818;50.562;7.454;2023-04-09T06:01:14;98492.19;;;5.13;100.00
54918;BME280;40818;50.562;7.454;2023-04-09T06:11:18;98481.91;;;6.41;100.00
54918;BME280;40818;50.562;7.454;2023-04-09T06:21:25;98496.13;;;6.75;94.89
54918;BME280;40818;50.562;7.454;2023-04-09T06:31:29;98493.22;;;6.61;100.00
54918;BME280;40818;50.562;7.454;2023-04-09T06:41:35;98497.25;;;6.92;98.74
54918;BME280;40818;50.562;7.454;2023-04-09T06:51:47;98495.09;;;7.03;98.71
54918;BME280;40818;50.562;7.454;2023-04-09T07:01:54;98497.69;;;7.46;96.45
54918;BME280;40818;50.562;7.454;2023-04-09T07:11:57;98501.50;;;7.80;91.56
54918;BME280;40818;50.562;7.454;2023-04-09T07:22:03;98510.72;;;8.06;93.44
54918;BME280;40818;50.562;7.454;2023-04-09T07:32:07;98509.78;;;8.86;96.91
54918;BME280;40818;50.562;7.454;2023-04-09T07:42:13;98518.16;;;9.30;93.99
54918;BME280;40818;50.562;7.454;2023-04-09T07:52:17;98514.28;;;9.56;88.88
54918;BME280;40818;50.562;7.454;2023-04-09T08:02:23;98520.09;;;10.14;81.71
54918;BME280;40818;50.562;7.454;2023-04-09T08:12:26;98517.78;;;10.07;73.64
54918;BME280;40818;50.562;7.454;2023-04-09T08:22:32;98520.97;;;9.97;84.23
54918;BME280;40818;50.562;7.454;2023-04-09T08:32:39;98512.84;;;10.03;84.27
54918;BME280;40818;50.562;7.454;2023-04-09T08:42:50;98519.09;;;10.16;80.90
54918;BME280;40818;50.562;7.454;2023-04-09T08:52:57;98517.84;;;10.90;74.27
54918;BME280;40818;50.562;7.454;2023-04-09T09:03:05;98516.03;;;10.43;76.95
54918;BME280;40818;50.562;7.454;2023-04-09T09:13:17;98533.38;;;9.55;76.86
54918;BME280;40818;50.562;7.454;2023-04-09T09:23:33;98519.03;;;9.48;82.35
54918;BME280;40818;50.562;7.454;2023-04-09T09:33:38;98516.22;;;10.56;67.73
54918;BME280;40818;50.562;7.454;2023-04-09T09:43:45;98513.78;;;9.49;73.72
54918;BME280;40818;50.562;7.454;2023-04-09T09:53:50;98508.28;;;9.55;71.89
54918;BME280;40818;50.562;7.454;2023-04-09T10:03:59;98497.56;;;9.27;77.76
54918;BME280;40818;50.562;7.454;2023-04-09T10:14:04;98484.25;;;9.34;78.34
54918;BME280;40818;50.562;7.454;2023-04-09T10:24:11;98486.28;;;8.91;75.81
54918;BME280;40818;50.562;7.454;2023-04-09T10:34:15;98487.50;;;9.20;83.01
54918;BME280;40818;50.562;7.454;2023-04-09T10:44:23;98487.66;;;9.17;77.75
54918;BME280;40818;50.562;7.454;2023-04-09T10:54:40;98478.38;;;9.31;72.17
54918;BME280;40818;50.562;7.454;2023-04-09T11:15:43;98474.03;;;8.95;73.55
54918;BME280;40818;50.562;7.454;2023-04-09T11:25:48;98472.69;;;9.05;73.69
54918;BME280;40818;50.562;7.454;2023-04-09T11:35:55;98470.28;;;9.19;73.92
54918;BME280;40818;50.562;7.454;2023-04-09T11:45:58;98463.28;;;9.39;74.72
54918;BME280;40818;50.562;7.454;2023-04-09T11:56:06;98460.94;;;9.34;72.42
54918;BME280;40818;50.562;7.454;2023-04-09T12:06:09;98454.16;;;9.67;73.45
54918;BME280;40818;50.562;7.454;2023-04-09T12:16:18;98453.69;;;9.41;73.26
54918;BME280;40818;50.562;7.454;2023-04-09T12:26:22;98451.69;;;9.46;70.75
54918;BME280;40818;50.562;7.454;2023-04-09T12:36:28;98448.97;;;9.67;69.10
54918;BME280;40818;50.562;7.454;2023-04-09T12:46:32;98441.09;;;9.68;73.20
54918;BME280;40818;50.562;7.454;2023-04-09T12:56:38;98441.63;;;9.75;76.08
54918;BME280;40818;50.562;7.454;2023-04-09T13:06:41;98445.22;;;9.72;69.60
54918;BME280;40818;50.562;7.454;2023-04-09T13:16:48;98432.03;;;9.60;66.32
54918;BME280;40818;50.562;7.454;2023-04-09T13:26:52;98432.59;;;10.00;69.50
54918;BME280;40818;50.562;7.454;2023-04-09T13:36:58;98427.78;;;10.43;62.09
54918;BME280;40818;50.562;7.454;2023-04-09T13:47:02;98411.84;;;10.97;61.96
54918;BME280;40818;50.562;7.454;2023-04-09T13:57:08;98411.66;;;11.16;57.65
54918;BME280;40818;50.562;7.454;2023-04-09T14:07:12;98415.47;;;11.25;59.59
54918;BME280;40818;50.562;7.454;2023-04-09T14:17:18;98409.13;;;11.15;58.75
54918;BME280;40818;50.562;7.454;2023-04-09T14:27:22;98394.88;;;10.59;56.60
54918;BME280;40818;50.562;7.454;2023-04-09T14:37:28;98403.31;;;10.79;57.98
54918;BME280;40818;50.562;7.454;2023-04-09T14:47:31;98390.66;;;11.50;59.58
54918;BME280;40818;50.562;7.454;2023-04-09T14:57:37;98390.81;;;11.32;55.37
54918;BME280;40818;50.562;7.454;2023-04-09T15:07:41;98384.69;;;10.87;55.77
54918;BME280;40818;50.562;7.454;2023-04-09T15:17:48;98384.50;;;11.06;55.91
54918;BME280;40818;50.562;7.454;2023-04-09T15:27:51;98373.28;;;10.89;55.94
54918;BME280;40818;50.562;7.454;2023-04-09T15:37:57;98376.25;;;10.83;57.26
54918;BME280;40818;50.562;7.454;2023-04-09T15:48:01;98360.13;;;11.23;55.54
54918;BME280;40818;50.562;7.454;2023-04-09T15:58:07;98364.38;;;11.54;56.06
54918;BME280;40818;50.562;7.454;2023-04-09T16:08:10;98358.38;;;10.93;55.50
54918;BME280;40818;50.562;7.454;2023-04-09T16:18:17;98375.19;;;10.39;56.94
54918;BME280;40818;50.562;7.454;2023-04-09T16:28:20;98374.34;;;10.39;55.84
54918;BME280;40818;50.562;7.454;2023-04-09T16:38:28;98370.78;;;10.24;57.40
54918;BME280;40818;50.562;7.454;2023-04-09T16:48:31;98372.06;;;10.33;57.07
54918;BME280;40818;50.562;7.454;2023-04-09T16:58:39;98376.25;;;10.19;56.40
54918;BME280;40818;50.562;7.454;2023-04-09T17:08:43;98382.34;;;10.18;55.73
54918;BME280;40818;50.562;7.454;2023-04-09T17:18:49;98371.03;;;9.70;57.77
54918;BME280;40818;50.562;7.454;2023-04-09T17:28:53;98361.69;;;9.50;58.92
54918;BME280;40818;50.562;7.454;2023-04-09T17:38:59;98347.63;;;9.20;59.72
54918;BME280;40818;50.562;7.454;2023-04-09T17:49:02;98345.75;;;8.87;59.74
54918;BME280;40818;50.562;7.454;2023-04-09T17:59:08;98349.47;;;8.64;60.31
54918;BME280;40818;50.562;7.454;2023-04-09T18:09:12;98360.50;;;8.50;60.53
54918;BME280;40818;50.562;7.454;2023-04-09T18:19:19;98349.69;;;8.22;61.82
54918;BME280;40818;50.562;7.454;2023-04-09T18:29:23;98378.63;;;8.11;62.43
54918;BME280;40818;50.562;7.454;2023-04-09T18:39:30;98369.88;;;7.94;62.96
54918;BME280;40818;50.562;7.454;2023-04-09T18:49:37;98376.97;;;7.70;64.26
54918;BME280;40818;50.562;7.454;2023-04-09T18:59:44;98363.78;;;7.56;65.46
54918;BME280;40818;50.562;7.454;2023-04-09T19:09:48;98374.53;;;7.26;67.60
54918;BME280;40818;50.562;7.454;2023-04-09T19:19:55;98369.28;;;7.07;69.62
54918;BME280;40818;50.562;7.454;2023-04-09T19:29:58;98379.81;;;6.80;71.19
54918;BME280;40818;50.562;7.454;2023-04-09T19:40:06;98380.16;;;6.48;73.90
54918;BME280;40818;50.562;7.454;2023-04-09T19:50:10;98380.28;;;6.45;72.37
54918;BME280;40818;50.562;7.454;2023-04-09T20:00:16;98366.25;;;6.30;73.84
54918;BME280;40818;50.562;7.454;2023-04-09T20:10:19;98357.94;;;6.00;77.01
54918;BME280;40818;50.562;7.454;2023-04-09T20:20:25;98362.88;;;5.81;78.75
54918;BME280;40818;50.562;7.454;2023-04-09T20:30:29;98368.09;;;5.79;78.49
54918;BME280;40818;50.562;7.454;2023-04-09T20:40:36;98358.66;;;5.78;78.41
54918;BME280;40818;50.562;7.454;2023-04-09T20:50:40;98351.31;;;5.68;78.92
54918;BME280;40818;50.562;7.454;2023-04-09T21:00:47;98344.59;;;5.63;79.20
54918;BME280;40818;50.562;7.454;2023-04-09T21:10:51;98354.28;;;5.57;79.72
54918;BME280;40818;50.562;7.454;2023-04-09T21:20:57;98336.47;;;5.51;80.32
54918;BME280;40818;50.562;7.454;2023-04-09T21:31:01;98332.19;;;5.50;80.21
54918;BME280;40818;50.562;7.454;2023-04-09T21:41:08;98326.75;;;5.34;81.79
54918;BME280;40818;50.562;7.454;2023-04-09T21:51:11;98320.09;;;5.28;81.89
54918;BME280;40818;50.562;7.454;2023-04-09T22:01:17;98324.41;;;5.27;82.35
54918;BME280;40818;50.562;7.454;2023-04-09T22:11:23;98320.09;;;5.28;83.01
54918;BME280;40818;50.562;7.454;2023-04-09T22:21:29;98323.56;;;5.27;83.14
54918;BME280;40818;50.562;7.454;2023-04-09T22:31:32;98332.84;;;5.31;82.88
54918;BME280;40818;50.562;7.454;2023-04-09T22:41:39;98314.59;;;5.13;84.28
54918;BME280;40818;50.562;7.454;2023-04-09T22:51:42;98303.22;;;4.67;89.10
54918;BME280;40818;50.562;7.454;2023-04-09T23:01:48;98305.06;;;4.64;90.58
54918;BME280;40818;50.562;7.454;2023-04-09T23:11:52;98315.81;;;4.76;89.99
54918;BME280;40818;50.562;7.454;2023-04-09T23:21:58;98324.00;;;4.88;89.24
54918;BME280;40818;50.562;7.454;2023-04-09T23:32:02;98344.34;;;4.95;88.56
54918;BME280;40818;50.562;7.454;2023-04-09T23:42:08;98352.78;;;4.99;87.33
54918;BME280;40818;50.562;7.454;2023-04-09T23:52:11;98336.56;;;4.70;89.45
